Time;durP1;ratioP1;P1;durP2;ratioP2;P2;SDS_P1;SDS_P2;PMS_P1;PMS_P2;Temp;Humidity;BMP_temperature;BMP_pressure;BME280_temperature;BME280_humidity;BME280_pressure;Samples;Min_cycle;Max_cycle;Signal;HPM_P1;HPM_P2
2023/12/05 00:00:16;;;;;;;6.38;1.58;;;10.00;99.90;;;;;;4265541;27;20477;-56
2023/12/05 00:02:20;;;;;;;10.95;1.60;;;10.00;99.90;;;;;;4265424;27;20485;-55
2023/12/05 00:04:22;;;;;;;8.65;1.83;;;10.00;99.90;;;;;;4246545;27;20264;-58
2023/12/05 00:06:24;;;;;;;2.90;1.38;;;10.00;99.90;;;;;;4265521;27;20057;-54
2023/12/05 00:08:26;;;;;;;5.70;1.27;;;9.90;99.90;;;;;;4265035;27;20046;-56
2023/12/05 00:10:29;;;;;;;9.40;2.65;;;10.00;99.90;;;;;;4264587;27;20077;-55
2023/12/05 00:12:32;;;;;;;7.18;1.33;;;9.90;99.90;;;;;;4265172;27;20398;-56
2023/12/05 00:14:34;;;;;;;6.88;1.63;;;10.00;99.90;;;;;;4265141;27;20039;-57
2023/12/05 00:16:36;;;;;;;5.88;1.55;;;9.90;99.90;;;;;;4265569;27;20095;-55
2023/12/05 00:18:39;;;;;;;7.22;1.88;;;9.90;99.90;;;;;;4264888;27;20056;-56
2023/12/05 00:20:41;;;;;;;7.88;1.88;;;9.90;99.90;;;;;;4266321;27;20075;-56
2023/12/05 00:22:43;;;;;;;5.53;1.48;;;9.80;99.90;;;;;;4266881;27;20100;-62
2023/12/05 00:24:45;;;;;;;4.88;1.20;;;9.90;99.90;;;;;;4247677;27;20043;-56
2023/12/05 00:26:47;;;;;;;5.60;1.55;;;9.90;99.90;;;;;;4265260;27;20046;-55
2023/12/05 00:28:50;;;;;;;8.80;1.75;;;9.90;99.90;;;;;;4265133;27;20043;-56
2023/12/05 00:30:51;;;;;;;3.85;1.30;;;9.80;99.90;;;;;;4265365;27;20584;-55
2023/12/05 00:32:54;;;;;;;10.07;1.80;;;9.90;99.90;;;;;;4264933;27;20047;-55
2023/12/05 00:34:57;;;;;;;6.22;1.95;;;9.90;99.90;;;;;;4264654;27;20524;-56
2023/12/05 00:36:59;;;;;;;6.30;1.40;;;9.90;99.90;;;;;;4266729;27;20043;-57
2023/12/05 00:39:01;;;;;;;10.15;1.70;;;9.90;99.90;;;;;;4267326;27;20148;-56
2023/12/05 00:41:04;;;;;;;6.43;1.52;;;9.90;99.90;;;;;;4266861;27;20134;-56
2023/12/05 00:43:07;;;;;;;5.22;1.40;;;9.90;99.90;;;;;;4266834;27;20118;-56
2023/12/05 00:45:12;;;;;;;4.63;1.27;;;9.80;99.90;;;;;;4266515;27;20043;-55
2023/12/05 00:47:15;;;;;;;5.18;1.17;;;9.90;99.90;;;;;;4265792;27;20129;-55
2023/12/05 00:49:17;;;;;;;6.72;1.80;;;9.90;99.90;;;;;;4264606;27;20050;-56
2023/12/05 00:51:20;;;;;;;13.32;1.30;;;9.90;99.90;;;;;;4264661;27;20042;-55
2023/12/05 00:53:23;;;;;;;5.15;1.38;;;9.90;99.90;;;;;;4265378;27;20046;-55
2023/12/05 00:55:25;;;;;;;6.35;1.70;;;10.00;99.90;;;;;;4264729;27;20460;-55
2023/12/05 00:57:27;;;;;;;4.22;1.25;;;10.00;99.90;;;;;;4265163;27;20131;-56
2023/12/05 00:59:29;;;;;;;3.42;1.05;;;9.90;99.90;;;;;;4264781;27;20050;-56
2023/12/05 01:01:31;;;;;;;8.13;1.60;;;9.80;99.90;;;;;;4263885;27;20043;-62
2023/12/05 01:03:34;;;;;;;6.47;1.38;;;9.80;99.90;;;;;;4264749;27;20104;-56
2023/12/05 01:05:36;;;;;;;7.43;1.60;;;9.90;99.90;;;;;;4264960;27;20051;-56
2023/12/05 01:07:40;;;;;;;7.93;1.80;;;9.90;99.90;;;;;;4264810;27;20043;-57
2023/12/05 01:09:42;;;;;;;6.20;1.30;;;9.90;99.90;;;;;;4264519;27;20070;-56
2023/12/05 01:11:45;;;;;;;7.43;1.30;;;9.80;99.90;;;;;;4264611;27;20054;-55
2023/12/05 01:13:47;;;;;;;6.72;1.63;;;9.80;99.90;;;;;;4264301;27;20047;-57
2023/12/05 01:15:49;;;;;;;5.97;1.48;;;9.90;99.90;;;;;;4264841;27;20099;-56
2023/12/05 01:17:51;;;;;;;6.93;1.77;;;9.90;99.90;;;;;;4264129;27;20053;-55
2023/12/05 01:19:53;;;;;;;7.40;1.60;;;9.80;99.90;;;;;;4264371;27;20461;-56
2023/12/05 01:21:56;;;;;;;6.38;1.38;;;9.90;99.90;;;;;;4265291;27;20043;-57
2023/12/05 01:23:59;;;;;;;11.13;1.98;;;9.80;99.90;;;;;;4268001;27;20092;-56
2023/12/05 01:26:01;;;;;;;5.25;1.73;;;9.80;99.90;;;;;;4268083;27;20043;-56
2023/12/05 01:28:04;;;;;;;4.95;1.27;;;9.90;99.90;;;;;;4267858;27;20038;-55
2023/12/05 01:30:08;;;;;;;5.00;1.33;;;9.90;99.90;;;;;;4267700;27;20053;-55
2023/12/05 01:32:10;;;;;;;5.93;1.50;;;9.90;99.90;;;;;;4267834;27;20066;-57
2023/12/05 01:34:12;;;;;;;8.00;1.55;;;9.90;99.90;;;;;;4267484;27;20397;-55
2023/12/05 01:36:14;;;;;;;4.70;1.27;;;9.90;99.90;;;;;;4267519;27;20046;-56
2023/12/05 01:38:18;;;;;;;4.47;1.27;;;9.90;99.90;;;;;;4267916;27;20146;-56
2023/12/05 01:40:21;;;;;;;8.48;1.45;;;9.90;99.90;;;;;;4269041;27;20043;-56
2023/12/05 01:42:24;;;;;;;5.55;1.20;;;9.90;99.90;;;;;;4268978;27;20049;-55
2023/12/05 01:44:26;;;;;;;3.80;1.45;;;9.80;99.90;;;;;;4268243;27;20057;-56
2023/12/05 01:46:30;;;;;;;3.85;1.17;;;9.90;99.90;;;;;;4268279;27;20042;-57
2023/12/05 01:48:36;;;;;;;4.57;1.17;;;9.80;99.90;;;;;;4268635;27;20042;-58
2023/12/05 01:50:38;;;;;;;2.67;1.13;;;9.70;99.90;;;;;;4270562;27;20062;-55
2023/12/05 01:52:47;;;;;;;6.10;1.13;;;9.70;99.90;;;;;;4269553;27;20064;-55
2023/12/05 01:54:50;;;;;;;2.42;1.10;;;9.60;99.90;;;;;;4268249;27;20051;-54
2023/12/05 01:56:55;;;;;;;4.95;1.38;;;9.70;99.90;;;;;;4268036;27;20043;-55
2023/12/05 01:58:57;;;;;;;4.82;1.45;;;9.70;99.90;;;;;;4267823;27;20074;-57
2023/12/05 02:01:00;;;;;;;7.13;1.55;;;9.70;99.90;;;;;;4267287;27;20049;-56
2023/12/05 02:03:02;;;;;;;3.25;0.90;;;9.70;99.90;;;;;;4267737;27;20046;-55
2023/12/05 02:05:04;;;;;;;9.05;1.73;;;9.70;99.90;;;;;;4267670;27;20480;-55
2023/12/05 02:07:08;;;;;;;6.53;1.48;;;9.70;99.90;;;;;;4267369;27;20043;-55
2023/12/05 02:09:12;;;;;;;6.30;1.30;;;9.60;99.90;;;;;;4267225;27;20051;-57
2023/12/05 02:11:14;;;;;;;7.68;1.45;;;9.60;99.90;;;;;;4249251;27;20485;-55
2023/12/05 02:13:17;;;;;;;6.50;1.17;;;9.60;99.90;;;;;;4267182;27;20274;-55
2023/12/05 02:15:20;;;;;;;10.48;1.90;;;9.60;99.90;;;;;;4266598;27;20051;-55
2023/12/05 02:17:30;;;;;;;7.05;2.17;;;9.50;99.90;;;;;;4267209;27;20047;-55
2023/12/05 02:19:44;;;;;;;9.82;2.05;;;9.50;99.90;;;;;;4267196;27;20108;-55
2023/12/05 02:21:49;;;;;;;10.25;1.77;;;9.50;99.90;;;;;;4267153;27;20079;-56
2023/12/05 02:24:15;;;;;;;6.28;2.20;;;9.50;99.90;;;;;;4266849;27;20042;-56
2023/12/05 02:26:27;;;;;;;8.18;3.20;;;9.40;99.90;;;;;;4248869;27;20091;-56
2023/12/05 02:28:31;;;;;;;3.47;1.65;;;9.40;99.90;;;;;;4267682;27;20046;-56
2023/12/05 02:30:34;;;;;;;7.85;3.83;;;9.30;99.90;;;;;;4267573;27;20061;-56
2023/12/05 02:32:36;;;;;;;10.00;4.93;;;9.30;99.90;;;;;;4267164;27;20507;-55
2023/12/05 02:34:39;;;;;;;10.68;5.05;;;9.40;99.90;;;;;;4265880;27;20039;-55
2023/12/05 02:36:48;;;;;;;7.47;5.35;;;9.40;99.90;;;;;;4266663;27;20073;-56
2023/12/05 02:39:03;;;;;;;4.60;2.20;;;9.30;99.90;;;;;;4266558;27;20089;-55
2023/12/05 02:41:11;;;;;;;5.10;1.83;;;9.20;99.90;;;;;;4266786;27;20046;-56
2023/12/05 02:43:18;;;;;;;4.20;1.23;;;9.20;99.90;;;;;;4266417;27;20057;-56
2023/12/05 02:45:28;;;;;;;4.05;1.70;;;9.10;99.90;;;;;;4266441;27;20047;-56
2023/12/05 02:47:33;;;;;;;2.70;0.90;;;9.10;99.90;;;;;;4266298;27;20096;-55
2023/12/05 02:49:36;;;;;;;4.60;1.20;;;9.10;99.90;;;;;;4266452;27;20078;-55
2023/12/05 02:51:38;;;;;;;5.22;1.02;;;9.00;99.90;;;;;;4266400;27;20053;-56
2023/12/05 02:53:40;;;;;;;3.05;1.10;;;8.90;99.90;;;;;;4266663;27;20051;-54
2023/12/05 02:55:42;;;;;;;3.60;1.20;;;8.90;99.90;;;;;;4247777;27;20068;-56
2023/12/05 02:57:45;;;;;;;1.95;1.05;;;9.00;99.90;;;;;;4266232;27;20069;-55
2023/12/05 02:59:47;;;;;;;5.00;0.93;;;8.90;99.90;;;;;;4266007;27;20043;-55
2023/12/05 03:01:51;;;;;;;3.47;1.10;;;8.90;99.90;;;;;;4266383;27;20050;-56
2023/12/05 03:03:53;;;;;;;4.38;1.17;;;8.80;99.90;;;;;;4266323;27;20050;-56
2023/12/05 03:05:55;;;;;;;4.43;0.88;;;8.90;99.90;;;;;;4266260;27;20043;-57
2023/12/05 03:07:57;;;;;;;20.13;2.25;;;8.70;99.90;;;;;;4266516;27;20050;-55
2023/12/05 03:09:59;;;;;;;3.63;0.80;;;8.70;99.90;;;;;;4266497;27;20111;-55
2023/12/05 03:12:02;;;;;;;6.18;0.90;;;8.70;99.90;;;;;;4266212;27;20126;-56
2023/12/05 03:14:04;;;;;;;6.70;1.27;;;8.70;99.90;;;;;;4265771;27;20035;-55
2023/12/05 03:16:07;;;;;;;5.85;1.10;;;8.60;99.90;;;;;;4266134;27;20047;-55
2023/12/05 03:18:11;;;;;;;1.10;0.47;;;8.50;99.90;;;;;;4247726;27;20044;-56
2023/12/05 03:20:14;;;;;;;2.03;0.50;;;8.50;99.90;;;;;;4265857;27;20077;-55
2023/12/05 03:22:16;;;;;;;2.40;0.80;;;8.50;99.90;;;;;;4265779;27;20051;-56
2023/12/05 03:24:18;;;;;;;4.63;0.93;;;8.40;99.90;;;;;;4265806;27;20043;-56
2023/12/05 03:26:22;;;;;;;2.00;0.65;;;8.40;99.90;;;;;;4265836;27;20130;-56
2023/12/05 03:28:24;;;;;;;4.60;0.57;;;8.30;99.90;;;;;;4265698;27;20039;-55
2023/12/05 03:30:26;;;;;;;5.95;0.95;;;8.30;99.90;;;;;;4247336;27;20043;-56
2023/12/05 03:32:29;;;;;;;1.58;0.45;;;8.20;99.90;;;;;;4265709;27;20043;-55
2023/12/05 03:34:32;;;;;;;1.52;0.70;;;8.20;99.90;;;;;;4265492;27;20146;-55
2023/12/05 03:36:34;;;;;;;1.58;0.60;;;8.20;99.90;;;;;;4265673;27;20046;-56
2023/12/05 03:38:38;;;;;;;4.10;0.90;;;8.20;99.90;;;;;;4265591;27;20050;-55
2023/12/05 03:40:40;;;;;;;3.85;0.60;;;8.10;99.90;;;;;;4265522;27;20053;-55
2023/12/05 03:42:42;;;;;;;2.88;0.32;;;8.10;99.90;;;;;;4265391;27;20039;-56
2023/12/05 03:44:44;;;;;;;3.90;0.95;;;8.10;99.90;;;;;;4265269;27;20064;-55
2023/12/05 03:46:46;;;;;;;1.83;0.75;;;8.00;99.90;;;;;;4265419;27;20042;-55
2023/12/05 03:48:48;;;;;;;1.63;0.60;;;8.10;99.90;;;;;;4265509;27;20042;-56
2023/12/05 03:50:51;;;;;;;1.63;0.57;;;8.10;99.90;;;;;;4265354;27;20047;-55
2023/12/05 03:52:54;;;;;;;2.20;0.70;;;8.10;99.90;;;;;;4265326;27;20042;-56
2023/12/05 03:54:56;;;;;;;1.95;0.90;;;8.10;99.90;;;;;;4265089;27;20051;-56
2023/12/05 03:56:58;;;;;;;2.75;1.45;;;8.10;99.90;;;;;;4265306;27;20047;-55
2023/12/05 03:59:00;;;;;;;1.25;0.70;;;8.10;99.90;;;;;;4265757;27;20570;-55
2023/12/05 04:01:02;;;;;;;1.88;0.70;;;8.20;99.90;;;;;;4265656;27;20489;-56
2023/12/05 04:03:04;;;;;;;3.15;0.63;;;8.20;99.90;;;;;;4265756;27;20049;-55
2023/12/05 04:05:07;;;;;;;1.48;0.65;;;8.20;99.90;;;;;;4265709;27;20055;-56
2023/12/05 04:07:11;;;;;;;3.20;1.40;;;8.20;99.90;;;;;;4264703;27;20458;-56
2023/12/05 04:09:14;;;;;;;2.45;1.20;;;8.20;99.90;;;;;;4265181;27;20051;-57
2023/12/05 04:11:16;;;;;;;3.00;1.35;;;8.10;99.90;;;;;;4265197;27;20091;-56
2023/12/05 04:13:18;;;;;;;2.42;1.00;;;8.10;99.90;;;;;;4265411;27;20438;-55
2023/12/05 04:15:30;;;;;;;2.38;1.40;;;8.20;99.90;;;;;;4267863;27;20102;-64
2023/12/05 04:17:33;;;;;;;3.60;1.30;;;8.20;99.90;;;;;;4267564;27;20043;-56
2023/12/05 04:19:35;;;;;;;3.55;1.88;;;8.20;99.90;;;;;;4266864;27;20111;-56
2023/12/05 04:21:37;;;;;;;2.70;1.52;;;8.30;99.90;;;;;;4265687;27;20415;-55
2023/12/05 04:23:41;;;;;;;3.25;1.25;;;8.40;99.90;;;;;;4265883;27;20047;-55
2023/12/05 04:25:44;;;;;;;3.33;1.10;;;8.40;99.90;;;;;;4267028;27;20119;-56
2023/12/05 04:27:46;;;;;;;1.75;1.08;;;8.40;99.90;;;;;;4267112;27;20047;-55
2023/12/05 04:29:48;;;;;;;3.83;0.82;;;8.40;99.90;;;;;;4267145;27;20058;-55
2023/12/05 04:31:50;;;;;;;4.97;1.60;;;8.40;99.90;;;;;;4267187;27;20070;-55
2023/12/05 04:33:52;;;;;;;2.70;0.70;;;8.50;99.90;;;;;;4267460;27;20061;-61
2023/12/05 04:35:54;;;;;;;2.28;0.77;;;8.50;99.90;;;;;;4265692;27;20039;-56
2023/12/05 04:37:56;;;;;;;2.58;0.80;;;8.50;99.90;;;;;;4264688;27;20099;-60
2023/12/05 04:40:00;;;;;;;2.58;1.00;;;8.50;99.90;;;;;;4264403;27;20045;-56
2023/12/05 04:42:02;;;;;;;1.98;0.65;;;8.50;99.90;;;;;;4265223;27;20054;-55
2023/12/05 04:44:06;;;;;;;4.13;1.02;;;8.50;99.90;;;;;;4264787;27;20042;-56
2023/12/05 04:46:09;;;;;;;4.07;1.30;;;8.60;99.90;;;;;;4264749;27;20125;-55
2023/12/05 04:48:11;;;;;;;3.28;0.80;;;8.60;99.90;;;;;;4264610;27;20138;-55
2023/12/05 04:50:13;;;;;;;3.78;1.00;;;8.60;99.90;;;;;;4265026;27;20047;-56
2023/12/05 04:52:16;;;;;;;2.85;0.75;;;8.60;99.90;;;;;;4264570;27;20049;-55
2023/12/05 04:54:17;;;;;;;3.03;0.95;;;8.60;99.90;;;;;;4264287;27;20050;-56
2023/12/05 04:56:22;;;;;;;2.50;0.90;;;8.60;99.90;;;;;;4263934;27;20051;-55
2023/12/05 04:58:24;;;;;;;3.67;1.00;;;8.60;99.90;;;;;;4264292;27;20050;-56
2023/12/05 05:00:27;;;;;;;2.67;1.40;;;8.60;99.90;;;;;;4264571;27;20118;-55
2023/12/05 05:02:29;;;;;;;2.22;1.23;;;8.60;99.90;;;;;;4246278;27;20412;-56
2023/12/05 05:04:31;;;;;;;5.28;1.27;;;8.70;99.90;;;;;;4264500;27;20053;-56
2023/12/05 05:06:33;;;;;;;3.50;1.42;;;8.70;99.90;;;;;;4264511;27;20069;-56
2023/12/05 05:08:35;;;;;;;6.78;1.42;;;8.70;99.90;;;;;;4264192;27;20039;-55
2023/12/05 05:10:37;;;;;;;3.88;1.20;;;8.80;99.90;;;;;;4264694;27;20057;-55
2023/12/05 05:12:41;;;;;;;3.60;1.55;;;8.70;99.90;;;;;;4264626;27;20050;-55
2023/12/05 05:14:43;;;;;;;3.60;2.05;;;8.80;99.90;;;;;;4264643;27;20450;-56
2023/12/05 05:16:46;;;;;;;3.13;1.45;;;8.80;99.90;;;;;;4265475;27;20043;-56
2023/12/05 05:18:48;;;;;;;5.35;1.33;;;8.70;99.90;;;;;;4267951;27;20114;-58
2023/12/05 05:20:50;;;;;;;2.80;1.35;;;8.80;99.90;;;;;;4267316;27;20130;-55
2023/12/05 05:22:52;;;;;;;3.30;1.00;;;8.80;99.90;;;;;;4265086;27;20069;-55
2023/12/05 05:24:54;;;;;;;2.17;0.80;;;8.70;99.90;;;;;;4264292;27;20039;-55
2023/12/05 05:26:57;;;;;;;4.82;1.08;;;8.70;99.90;;;;;;4264537;27;20107;-55
2023/12/05 05:29:00;;;;;;;3.47;1.10;;;8.80;99.90;;;;;;4264206;27;20138;-56
2023/12/05 05:31:03;;;;;;;4.53;1.45;;;8.80;99.90;;;;;;4246013;28;20457;-55
2023/12/05 05:33:05;;;;;;;3.75;1.27;;;8.80;99.90;;;;;;4264531;27;20481;-55
2023/12/05 05:35:08;;;;;;;2.90;0.77;;;8.80;99.90;;;;;;4264266;27;20082;-55
2023/12/05 05:37:10;;;;;;;2.40;1.02;;;8.70;99.90;;;;;;4264304;27;20133;-56
2023/12/05 05:39:12;;;;;;;2.63;1.08;;;8.70;99.90;;;;;;4264031;27;20047;-54
2023/12/05 05:41:14;;;;;;;2.83;1.10;;;8.70;99.90;;;;;;4264974;27;20382;-55
2023/12/05 05:43:16;;;;;;;4.85;1.05;;;8.80;99.90;;;;;;4265021;27;20145;-55
2023/12/05 05:45:20;;;;;;;3.53;1.08;;;8.80;99.90;;;;;;4264435;27;20050;-55
2023/12/05 05:47:22;;;;;;;4.45;1.20;;;8.80;99.90;;;;;;4264897;27;20477;-54
2023/12/05 05:49:24;;;;;;;8.15;1.30;;;8.80;99.90;;;;;;4264345;27;20100;-56
2023/12/05 05:51:27;;;;;;;7.57;1.38;;;8.80;99.90;;;;;;4264285;27;20057;-56
2023/12/05 05:53:28;;;;;;;5.68;1.15;;;8.70;99.90;;;;;;4263795;27;20043;-56
2023/12/05 05:55:31;;;;;;;3.20;1.00;;;8.70;99.90;;;;;;4262995;27;20051;-55
2023/12/05 05:57:35;;;;;;;6.07;1.23;;;8.80;99.90;;;;;;4264252;27;20125;-55
2023/12/05 05:59:41;;;;;;;9.25;1.55;;;8.80;99.90;;;;;;4264372;27;20061;-55
2023/12/05 06:01:46;;;;;;;6.78;1.30;;;8.80;99.90;;;;;;4264296;27;20460;-58
2023/12/05 06:03:48;;;;;;;;;;;8.80;99.90;;;;;;4265255;27;20055;-56
2023/12/05 06:05:50;;;;;;;4.68;1.10;;;8.80;99.90;;;;;;4246782;28;19927;-56
2023/12/05 06:07:52;;;;;;;12.98;2.50;;;8.70;99.90;;;;;;4265811;27;20042;-54
2023/12/05 06:09:54;;;;;;;9.65;2.20;;;8.70;99.90;;;;;;4267562;27;20047;-56
2023/12/05 06:11:57;;;;;;;3.75;1.15;;;8.70;99.90;;;;;;4267017;27;20434;-55
2023/12/05 06:13:59;;;;;;;9.45;1.83;;;8.90;99.90;;;;;;4267084;27;20051;-56
2023/12/05 06:16:01;;;;;;;5.97;1.10;;;8.90;99.90;;;;;;4267134;27;20096;-56
2023/12/05 06:18:04;;;;;;;3.55;0.95;;;8.90;99.90;;;;;;4267063;27;20485;-54
2023/12/05 06:20:08;;;;;;;4.57;1.38;;;8.90;99.90;;;;;;4266971;27;20047;-55
2023/12/05 06:22:10;;;;;;;5.22;1.20;;;8.80;99.90;;;;;;4266691;27;20043;-56
2023/12/05 06:24:12;;;;;;;4.93;1.40;;;8.80;99.90;;;;;;4248628;27;20050;-56
2023/12/05 06:26:14;;;;;;;4.63;1.20;;;8.80;99.90;;;;;;4248405;27;20198;-56
2023/12/05 06:28:16;;;;;;;7.07;1.27;;;8.90;99.90;;;;;;4266847;27;20095;-56
2023/12/05 06:30:19;;;;;;;8.45;2.10;;;8.90;99.90;;;;;;4266891;27;20042;-54
2023/12/05 06:32:28;;;;;;;5.80;1.30;;;8.90;99.90;;;;;;4267299;27;20117;-56
2023/12/05 06:34:31;;;;;;;5.13;1.27;;;8.80;99.90;;;;;;4267631;27;20043;-55
2023/12/05 06:36:33;;;;;;;3.90;0.90;;;8.80;99.90;;;;;;4266995;27;20050;-55
2023/12/05 06:38:36;;;;;;;4.97;0.93;;;8.80;99.90;;;;;;4267347;27;20043;-58
2023/12/05 06:40:38;;;;;;;4.15;1.25;;;8.90;99.90;;;;;;4267859;27;20046;-56
2023/12/05 06:42:42;;;;;;;5.28;1.83;;;8.80;99.90;;;;;;4268110;27;20069;-56
2023/12/05 06:44:45;;;;;;;3.38;1.52;;;8.90;99.90;;;;;;4267661;27;20042;-55
2023/12/05 06:46:47;;;;;;;6.43;1.40;;;8.90;99.90;;;;;;4249210;27;20050;-57
2023/12/05 06:48:51;;;;;;;2.97;1.00;;;9.00;99.90;;;;;;4267151;27;20051;-55
2023/12/05 06:50:54;;;;;;;3.50;1.00;;;8.90;99.90;;;;;;4266190;27;20042;-55
2023/12/05 06:52:57;;;;;;;3.35;0.93;;;9.00;99.90;;;;;;4266454;27;20517;-55
2023/12/05 06:54:59;;;;;;;4.15;1.20;;;9.00;99.90;;;;;;4266506;27;20466;-55
2023/12/05 06:57:02;;;;;;;4.07;1.08;;;9.00;99.90;;;;;;4266512;27;20038;-55
2023/12/05 06:59:04;;;;;;;22.60;4.20;;;9.00;99.90;;;;;;4248272;27;20122;-56
2023/12/05 07:01:07;;;;;;;7.82;1.65;;;8.90;99.90;;;;;;4266573;27;20122;-55
2023/12/05 07:03:09;;;;;;;8.90;2.63;;;8.90;99.90;;;;;;4267385;27;20117;-55
2023/12/05 07:05:11;;;;;;;14.27;3.30;;;8.90;99.90;;;;;;4267269;27;20106;-55
2023/12/05 07:07:15;;;;;;;9.90;2.10;;;8.90;99.90;;;;;;4267613;27;20152;-59
2023/12/05 07:09:18;;;;;;;4.30;1.65;;;8.90;99.90;;;;;;4268012;27;20070;-53
2023/12/05 07:11:20;;;;;;;11.77;2.00;;;8.90;99.90;;;;;;4267080;27;20069;-55
2023/12/05 07:13:22;;;;;;;9.30;2.40;;;8.90;99.90;;;;;;4266755;27;20436;-55
2023/12/05 07:15:25;;;;;;;5.43;1.48;;;9.00;99.90;;;;;;4266676;27;20122;-55
2023/12/05 07:17:27;;;;;;;8.90;1.90;;;8.90;99.90;;;;;;4266996;27;20080;-56
2023/12/05 07:19:29;;;;;;;6.18;1.20;;;9.00;99.90;;;;;;4266097;27;20050;-56
2023/12/05 07:21:31;;;;;;;3.20;1.10;;;8.90;99.90;;;;;;4266364;27;20370;-55
2023/12/05 07:23:34;;;;;;;6.97;0.85;;;8.90;99.90;;;;;;4266403;27;20039;-55
2023/12/05 07:25:37;;;;;;;7.13;1.20;;;8.90;99.90;;;;;;4266343;27;20070;-57
2023/12/05 07:27:39;;;;;;;3.42;0.98;;;8.90;99.90;;;;;;4265859;27;20047;-55
2023/12/05 07:29:41;;;;;;;5.10;1.00;;;9.00;99.90;;;;;;4266403;27;20054;-56
2023/12/05 07:31:43;;;;;;;4.78;1.02;;;8.90;99.90;;;;;;4266081;27;20046;-56
2023/12/05 07:33:45;;;;;;;7.60;1.10;;;8.90;99.90;;;;;;4265705;27;20050;-56
2023/12/05 07:35:48;;;;;;;2.25;1.00;;;8.90;99.90;;;;;;4247041;27;20077;-55
2023/12/05 07:37:49;;;;;;;3.67;1.08;;;8.90;99.90;;;;;;4265844;27;20051;-60
2023/12/05 07:39:53;;;;;;;3.67;1.10;;;8.90;99.90;;;;;;4265506;27;20046;-56
2023/12/05 07:41:56;;;;;;;2.75;0.93;;;8.70;99.90;;;;;;4265875;27;20054;-56
2023/12/05 07:43:58;;;;;;;6.78;1.52;;;8.80;99.90;;;;;;4265442;27;20047;-56
2023/12/05 07:46:00;;;;;;;4.22;1.30;;;8.80;99.90;;;;;;4265646;27;20054;-56
2023/12/05 07:48:02;;;;;;;3.35;0.73;;;8.80;99.90;;;;;;4264982;27;20145;-56
2023/12/05 07:50:06;;;;;;;3.42;0.90;;;8.80;99.90;;;;;;4265268;27;20493;-56
2023/12/05 07:52:08;;;;;;;4.32;1.33;;;8.70;99.90;;;;;;4265718;27;20051;-55
2023/12/05 07:54:10;;;;;;;5.18;1.20;;;8.60;99.90;;;;;;4265490;27;20481;-56
2023/12/05 07:56:14;;;;;;;5.30;1.63;;;8.70;99.90;;;;;;4265287;27;20054;-56
2023/12/05 07:58:16;;;;;;;4.28;1.42;;;8.70;99.90;;;;;;4266213;27;20039;-56
2023/12/05 08:00:19;;;;;;;6.32;1.30;;;8.70;99.90;;;;;;4265258;27;20057;-55
2023/12/05 08:02:21;;;;;;;2.83;1.55;;;8.80;99.90;;;;;;4265462;27;20050;-55
2023/12/05 08:04:23;;;;;;;4.28;1.27;;;8.90;99.90;;;;;;4265281;27;20053;-56
2023/12/05 08:06:26;;;;;;;6.20;1.58;;;8.80;99.90;;;;;;4265522;27;20062;-55
2023/12/05 08:08:30;;;;;;;5.18;2.08;;;8.80;99.90;;;;;;4265577;27;20047;-57
2023/12/05 08:10:32;;;;;;;4.80;1.63;;;8.80;99.90;;;;;;4265487;27;20485;-56
2023/12/05 08:12:36;;;;;;;2.63;1.55;;;8.70;99.90;;;;;;4265518;27;20070;-55
2023/12/05 08:14:39;;;;;;;3.95;1.60;;;8.80;99.90;;;;;;4265169;27;20157;-56
2023/12/05 08:16:42;;;;;;;3.97;1.58;;;8.80;99.90;;;;;;4265524;27;20069;-56
2023/12/05 08:18:44;;;;;;;4.95;1.98;;;8.70;99.90;;;;;;4264909;27;20047;-61
2023/12/05 08:20:49;;;;;;;6.13;1.35;;;8.70;99.90;;;;;;4264413;27;20050;-57
2023/12/05 08:22:51;;;;;;;4.22;1.30;;;8.80;99.90;;;;;;4265208;27;20078;-55
2023/12/05 08:24:53;;;;;;;4.43;1.70;;;8.80;99.90;;;;;;4265323;27;20133;-56
2023/12/05 08:26:55;;;;;;;4.80;1.23;;;8.90;99.90;;;;;;4264893;27;20046;-55
2023/12/05 08:28:59;;;;;;;4.38;1.45;;;8.80;99.90;;;;;;4265048;27;20039;-55
2023/12/05 08:31:01;;;;;;;2.78;1.25;;;8.90;99.90;;;;;;4265345;27;20051;-57
2023/12/05 08:33:05;;;;;;;2.50;1.10;;;8.90;99.90;;;;;;4265180;27;20466;-58
2023/12/05 08:35:09;;;;;;;3.17;1.50;;;8.90;99.90;;;;;;4266227;27;20130;-56
2023/12/05 08:37:11;;;;;;;5.78;1.55;;;8.80;99.90;;;;;;4265520;27;20097;-55
2023/12/05 08:39:13;;;;;;;3.17;1.13;;;8.80;99.90;;;;;;4264944;27;20047;-59
2023/12/05 08:41:19;;;;;;;5.82;1.38;;;8.80;99.90;;;;;;4265394;27;20058;-55
2023/12/05 08:43:21;;;;;;;8.00;1.85;;;8.80;99.90;;;;;;4265409;27;20076;-55
2023/12/05 08:45:25;;;;;;;7.80;1.80;;;8.90;99.90;;;;;;4266313;27;20481;-56
2023/12/05 08:47:27;;;;;;;3.53;1.55;;;9.00;99.90;;;;;;4267103;27;20047;-55
2023/12/05 08:49:30;;;;;;;6.15;1.27;;;9.00;99.90;;;;;;4266820;27;20042;-57
2023/12/05 08:51:32;;;;;;;5.65;1.27;;;8.90;99.90;;;;;;4266792;27;20050;-61
2023/12/05 08:53:35;;;;;;;4.20;1.40;;;8.80;99.90;;;;;;4267002;27;20042;-62
2023/12/05 08:55:39;;;;;;;6.53;1.90;;;8.90;99.90;;;;;;4266642;27;20076;-58
2023/12/05 08:57:42;;;;;;;5.35;1.33;;;8.90;99.90;;;;;;4265374;27;20054;-57
2023/12/05 08:59:44;;;;;;;1.88;1.27;;;8.90;99.90;;;;;;4265372;27;20117;-56
2023/12/05 09:01:48;;;;;;;3.95;1.40;;;8.90;99.90;;;;;;4265167;27;20043;-59
2023/12/05 09:03:51;;;;;;;3.35;1.35;;;8.90;99.90;;;;;;4264735;27;20121;-56
2023/12/05 09:05:53;;;;;;;3.13;0.90;;;8.90;99.90;;;;;;4264703;27;20554;-55
2023/12/05 09:07:56;;;;;;;7.72;1.02;;;8.90;99.90;;;;;;4265517;27;20125;-55
2023/12/05 09:09:59;;;;;;;4.25;1.27;;;9.00;99.90;;;;;;4265805;27;20062;-55
2023/12/05 09:12:01;;;;;;;1.80;1.15;;;9.10;99.90;;;;;;4264756;27;20066;-57
2023/12/05 09:14:06;;;;;;;;;;;9.10;99.90;;;;;;4265192;27;20201;-55
2023/12/05 09:16:08;;;;;;;3.28;1.10;;;9.00;99.90;;;;;;4264338;27;19919;-56
2023/12/05 09:18:13;;;;;;;2.97;1.10;;;9.00;99.90;;;;;;4246314;27;20052;-55
2023/12/05 09:20:15;;;;;;;4.30;1.10;;;8.90;99.90;;;;;;4264419;27;20050;-55
2023/12/05 09:22:18;;;;;;;2.55;1.00;;;8.90;99.90;;;;;;4264513;27;20042;-56
2023/12/05 09:24:20;;;;;;;4.82;1.13;;;8.90;99.90;;;;;;4264610;27;20069;-60
2023/12/05 09:26:22;;;;;;;2.28;1.25;;;9.00;99.90;;;;;;4246372;27;20058;-55
2023/12/05 09:28:27;;;;;;;2.83;1.27;;;9.00;99.90;;;;;;4264550;27;20046;-56
2023/12/05 09:30:30;;;;;;;2.20;1.30;;;9.10;99.90;;;;;;4263901;27;20442;-55
2023/12/05 09:32:32;;;;;;;3.33;0.93;;;9.10;99.90;;;;;;4264405;27;20378;-56
2023/12/05 09:34:36;;;;;;;3.17;1.05;;;9.00;99.90;;;;;;4264471;27;20442;-55
2023/12/05 09:36:38;;;;;;;3.83;1.00;;;9.00;99.90;;;;;;4264451;27;20477;-56
2023/12/05 09:38:40;;;;;;;3.35;1.02;;;9.10;99.90;;;;;;4262835;27;20185;-55
2023/12/05 09:40:43;;;;;;;2.80;1.20;;;9.10;99.90;;;;;;4265096;27;20061;-55
2023/12/05 09:42:47;;;;;;;3.95;1.25;;;9.20;99.90;;;;;;4265348;27;20081;-56
2023/12/05 09:44:50;;;;;;;2.80;1.10;;;9.20;99.90;;;;;;4267521;27;20066;-56
2023/12/05 09:46:57;;;;;;;3.83;1.08;;;9.30;99.90;;;;;;4267661;27;20138;-56
2023/12/05 09:49:04;;;;;;;2.50;1.10;;;9.20;99.90;;;;;;4267587;27;20050;-55
2023/12/05 09:51:08;;;;;;;1.65;1.10;;;9.20;99.90;;;;;;4267899;27;20043;-56
2023/12/05 09:53:13;;;;;;;4.93;1.00;;;9.30;99.90;;;;;;4267814;27;20043;-55
2023/12/05 09:55:16;;;;;;;4.72;1.50;;;9.40;99.90;;;;;;4268161;27;20046;-57
2023/12/05 09:57:19;;;;;;;1.90;1.15;;;9.30;99.90;;;;;;4268099;27;20052;-56
2023/12/05 09:59:21;;;;;;;5.50;1.00;;;9.40;99.90;;;;;;4267234;27;20045;-57
2023/12/05 10:01:25;;;;;;;7.03;1.30;;;9.30;99.90;;;;;;4267969;27;20042;-55
2023/12/05 10:03:32;;;;;;;3.83;1.05;;;9.40;99.90;;;;;;4267938;27;20046;-55
2023/12/05 10:05:37;;;;;;;2.58;1.30;;;9.40;99.90;;;;;;4267388;27;20054;-56
2023/12/05 10:07:42;;;;;;;1.40;0.77;;;9.50;99.90;;;;;;4267377;27;20043;-55
2023/12/05 10:09:45;;;;;;;2.85;1.10;;;9.40;99.90;;;;;;4267340;27;20047;-55
2023/12/05 10:11:49;;;;;;;2.53;1.20;;;9.40;99.90;;;;;;4267147;27;20494;-56
2023/12/05 10:13:52;;;;;;;3.55;1.10;;;9.40;99.90;;;;;;4266730;27;20137;-58
2023/12/05 10:15:54;;;;;;;2.05;1.05;;;9.40;99.90;;;;;;4266891;27;20122;-55
2023/12/05 10:17:58;;;;;;;2.50;1.27;;;9.30;99.90;;;;;;4266915;27;20034;-56
2023/12/05 10:20:00;;;;;;;3.58;1.60;;;9.40;99.90;;;;;;4267112;27;20043;-56
2023/12/05 10:22:03;;;;;;;5.03;2.13;;;9.40;99.90;;;;;;4266896;27;20524;-56
2023/12/05 10:24:06;;;;;;;3.97;1.40;;;9.50;99.90;;;;;;4266861;27;20095;-56
2023/12/05 10:26:09;;;;;;;4.65;1.40;;;9.50;99.90;;;;;;4267111;27;20046;-55
2023/12/05 10:28:12;;;;;;;5.20;1.45;;;9.40;99.90;;;;;;4266483;27;20043;-54
2023/12/05 10:30:31;;;;;;;3.65;1.35;;;9.50;99.90;;;;;;4266140;27;20058;-55
2023/12/05 10:32:33;;;;;;;7.18;1.40;;;9.60;99.90;;;;;;4267807;27;20048;-56
2023/12/05 10:34:47;;;;;;;1.98;1.08;;;9.50;99.90;;;;;;4266956;27;20386;-55
2023/12/05 10:37:01;;;;;;;2.47;1.00;;;9.50;99.90;;;;;;4248334;27;20092;-56
2023/12/05 10:39:05;;;;;;;6.30;1.55;;;9.50;99.90;;;;;;4266727;27;20059;-57
2023/12/05 10:41:08;;;;;;;2.38;1.20;;;9.30;99.90;;;;;;4266711;27;20057;-56
2023/12/05 10:43:10;;;;;;;4.75;1.52;;;9.40;99.90;;;;;;4266164;27;20099;-56
2023/12/05 10:45:13;;;;;;;4.22;1.33;;;9.40;99.90;;;;;;4266566;27;20043;-55
2023/12/05 10:47:15;;;;;;;2.30;1.38;;;9.40;99.90;;;;;;4266787;27;20096;-55
2023/12/05 10:49:20;;;;;;;3.55;1.40;;;9.40;99.90;;;;;;4266738;27;20077;-59